Terminal Aerodrome Forecast
Issued by NWS

Home | Current Version | Previous Version | Text Only | Print | Product List | Glossary On
Versions: 1 2 3 4 5 6 7 8 9 10 11 12
929
FTUS45 KTFX 041120
TAFLWT
TAF
KLWT 041120Z 0412/0512 13006KT P6SM SKC
     FM041900 25008G18KT P6SM SKC
     FM050000 VRB06KT P6SM SCT180=

USA.gov is the U.S. government's official web portal to all federal, state and local government web resources and services.